Time;durP1;ratioP1;P1;durP2;ratioP2;P2;SDS_P1;SDS_P2;PMS_P1;PMS_P2;Temp;Humidity;BMP_temperature;BMP_pressure;BME280_temperature;BME280_humidity;BME280_pressure;Samples;Min_cycle;Max_cycle;Signal;HPM_P1;HPM_P2
2023/10/11 00:01:29;;;;;;;14.95;8.05;;;;;;;15.45;93.93;101413.19;6218773;23;20021;-79
2023/10/11 00:03:58;;;;;;;12.13;7.97;;;;;;;15.42;94.83;101406.81;6193046;23;20021;-80
2023/10/11 00:06:28;;;;;;;15.40;8.63;;;;;;;15.43;94.86;101408.28;6218665;23;20024;-79
2023/10/11 00:08:55;;;;;;;15.70;8.73;;;;;;;15.41;95.45;101408.00;6166919;23;20045;-80
2023/10/11 00:11:24;;;;;;;19.63;7.75;;;;;;;15.41;95.93;101397.28;6191772;23;20025;-80
2023/10/11 00:13:53;;;;;;;18.30;8.18;;;;;;;15.41;95.74;101408.00;6219505;23;20451;-80
2023/10/11 00:16:21;;;;;;;18.48;8.52;;;;;;;15.41;95.71;101402.63;6218754;23;20473;-79
2023/10/11 00:18:51;;;;;;;14.52;8.30;;;;;;;15.40;96.03;101403.84;6219322;23;20037;-79
2023/10/11 00:21:18;;;;;;;17.25;9.05;;;;;;;15.39;96.56;101410.41;6192253;23;20419;-79
2023/10/11 00:23:48;;;;;;;11.85;8.75;;;;;;;15.38;96.58;101400.88;6218637;23;20083;-79
2023/10/11 00:26:17;;;;;;;16.80;9.02;;;;;;;15.39;96.65;101410.41;6219462;23;20036;-79
2023/10/11 00:28:52;;;;;;;14.38;8.27;;;;;;;15.38;96.59;101405.50;6192325;23;20049;-79
2023/10/11 00:31:19;;;;;;;14.27;8.50;;;;;;;15.36;96.70;101408.63;6191974;23;20025;-79
2023/10/11 00:33:47;;;;;;;12.23;8.65;;;;;;;15.37;96.58;101404.00;6192326;23;20024;-79
2023/10/11 00:36:15;;;;;;;19.92;9.50;;;;;;;15.35;96.74;101415.19;6217134;23;20511;-80
2023/10/11 00:38:46;;;;;;;16.85;8.18;;;;;;;15.33;96.92;101402.22;6218232;23;20017;-80
2023/10/11 00:41:17;;;;;;;12.38;8.40;;;;;;;15.32;96.87;101398.06;6219054;23;20028;-80
2023/10/11 00:43:52;;;;;;;20.45;9.40;;;;;;;15.32;96.78;101400.00;6219465;23;20408;-80
2023/10/11 00:46:24;;;;;;;13.55;8.65;;;;;;;15.31;97.03;101395.84;6218812;23;20739;-80
2023/10/11 00:48:56;;;;;;;18.77;8.98;;;;;;;15.31;97.42;101401.94;6192926;23;20013;-80
2023/10/11 00:51:26;;;;;;;;;;;;;;;15.31;96.72;101395.84;6217437;23;20076;-80
2023/10/11 00:53:53;;;;;;;16.67;8.45;;;;;;;15.29;97.61;101395.56;6218849;23;20372;-80
2023/10/11 00:56:26;;;;;;;13.70;8.32;;;;;;;15.28;97.99;101400.16;6191692;23;20025;-80
2023/10/11 00:58:55;;;;;;;13.55;8.38;;;;;;;15.29;98.26;101401.66;6192736;23;20020;-80
2023/10/11 01:01:22;;;;;;;14.60;9.13;;;;;;;15.28;98.63;101391.38;6191471;23;20028;-79
2023/10/11 01:03:49;;;;;;;17.90;8.90;;;;;;;15.27;98.55;101390.63;6191900;23;20021;-79
2023/10/11 01:06:17;;;;;;;13.02;8.23;;;;;;;15.27;99.17;101396.00;6217217;23;20021;-80
2023/10/11 01:08:44;;;;;;;18.95;9.27;;;;;;;15.26;99.38;101378.44;6216465;23;20083;-80
2023/10/11 01:11:12;;;;;;;12.13;9.02;;;;;;;15.26;99.67;101388.41;6218386;23;20017;-79
2023/10/11 01:13:43;;;;;;;13.25;8.82;;;;;;;15.25;99.43;101378.88;6191662;23;20016;-79
2023/10/11 01:16:11;;;;;;;13.48;9.38;;;;;;;15.25;99.65;101382.31;6192153;23;20020;-79
2023/10/11 01:18:39;;;;;;;17.42;8.85;;;;;;;15.25;99.66;101381.56;6191653;23;20486;-79
2023/10/11 01:21:05;;;;;;;14.68;9.02;;;;;;;15.25;99.82;101381.56;6219199;23;20488;-79
2023/10/11 01:23:36;;;;;;;13.43;8.88;;;;;;;15.25;100.00;101368.16;6218044;23;20059;-79
2023/10/11 01:26:07;;;;;;;15.63;9.50;;;;;;;15.26;100.00;101373.06;6219051;23;20013;-80
2023/10/11 01:28:34;;;;;;;16.35;8.60;;;;;;;15.26;100.00;101366.94;6217071;23;20096;-80
2023/10/11 01:31:08;;;;;;;14.95;9.50;;;;;;;15.26;100.00;101364.28;6219122;23;20423;-79
2023/10/11 01:33:41;;;;;;;17.92;9.13;;;;;;;15.26;100.00;101361.59;6191960;23;20406;-79
2023/10/11 01:36:15;;;;;;;16.85;9.88;;;;;;;15.25;100.00;101355.47;6218371;23;20013;-80
2023/10/11 01:38:48;;;;;;;15.07;9.57;;;;;;;15.23;100.00;101357.88;6218580;23;20024;-79
2023/10/11 01:41:19;;;;;;;22.85;9.77;;;;;;;15.23;100.00;101359.81;6218856;23;20080;-79
2023/10/11 01:43:46;;;;;;;18.90;9.52;;;;;;;15.22;100.00;101359.06;6219128;23;20088;-79
2023/10/11 01:46:24;;;;;;;17.17;9.98;;;;;;;15.23;100.00;101357.13;6192274;23;20025;-79
2023/10/11 01:48:52;;;;;;;16.30;9.57;;;;;;;15.21;100.00;101360.28;6219247;23;20006;-79
2023/10/11 01:51:28;;;;;;;13.80;9.02;;;;;;;15.21;100.00;101356.84;6217888;23;20028;-81
2023/10/11 01:53:56;;;;;;;15.68;9.73;;;;;;;15.18;100.00;101347.06;6192004;23;20021;-79
2023/10/11 01:56:26;;;;;;;17.42;9.25;;;;;;;15.19;100.00;101343.19;6218181;23;20458;-79
2023/10/11 01:58:56;;;;;;;15.60;9.20;;;;;;;15.19;100.00;101345.88;6191868;23;20100;-79
2023/10/11 02:01:25;;;;;;;16.85;9.70;;;;;;;15.18;100.00;101333.66;6191354;23;20029;-79
2023/10/11 02:03:56;;;;;;;15.93;9.70;;;;;;;15.16;100.00;101336.03;6192463;23;20020;-79
2023/10/11 02:06:24;;;;;;;19.70;9.68;;;;;;;15.14;100.00;101333.06;6217643;23;20013;-79
2023/10/11 02:08:51;;;;;;;17.77;10.38;;;;;;;15.12;100.00;101335.47;6217023;23;20422;-79
2023/10/11 02:11:25;;;;;;;14.20;9.27;;;;;;;15.12;100.00;101330.09;6218522;23;20017;-79
2023/10/11 02:13:52;;;;;;;18.58;10.40;;;;;;;15.10;100.00;101325.19;6218835;23;20013;-79
2023/10/11 02:16:19;;;;;;;15.40;10.57;;;;;;;15.12;100.00;101319.38;6190402;23;20459;-79
2023/10/11 02:18:58;;;;;;;17.10;10.15;;;;;;;15.11;100.00;101324.00;6218696;23;20021;-79
2023/10/11 02:21:29;;;;;;;14.30;9.60;;;;;;;15.11;100.00;101307.16;6191253;23;20629;-79
2023/10/11 02:23:59;;;;;;;14.02;9.93;;;;;;;15.10;100.00;101314.47;6218795;23;20018;-79
2023/10/11 02:26:34;;;;;;;21.60;10.55;;;;;;;15.09;100.00;101310.31;6191276;23;20024;-79
2023/10/11 02:29:15;;;;;;;21.02;10.00;;;;;;;15.08;100.00;101303.47;6191881;23;20091;-79
2023/10/11 02:31:42;;;;;;;22.27;10.18;;;;;;;15.05;100.00;101301.69;6191600;23;20032;-79
2023/10/11 02:34:14;;;;;;;16.17;9.55;;;;;;;15.05;100.00;101298.28;6217697;23;20017;-79
2023/10/11 02:36:42;;;;;;;15.27;10.00;;;;;;;15.04;100.00;101291.44;6218340;23;20025;-79
2023/10/11 02:39:22;;;;;;;20.70;9.95;;;;;;;15.03;100.00;101304.09;6216060;23;20013;-79
2023/10/11 02:41:50;;;;;;;20.13;10.50;;;;;;;15.01;100.00;101301.88;6218528;23;20013;-79
2023/10/11 02:44:22;;;;;;;22.55;10.68;;;;;;;15.00;100.00;101307.69;6190605;23;20025;-79
2023/10/11 02:46:50;;;;;;;17.98;10.48;;;;;;;14.99;100.00;101312.28;6218363;23;20068;-79
2023/10/11 02:49:19;;;;;;;20.33;10.18;;;;;;;14.97;100.00;101313.94;6217507;23;20067;-80
2023/10/11 02:51:54;;;;;;;17.02;10.27;;;;;;;14.96;100.00;101315.16;6218644;23;20037;-80
2023/10/11 02:54:24;;;;;;;19.73;10.52;;;;;;;14.94;100.00;101312.19;6217791;23;20088;-80
2023/10/11 02:56:52;;;;;;;17.77;9.85;;;;;;;14.91;100.00;101319.19;6218545;23;20456;-80
2023/10/11 02:59:22;;;;;;;18.67;9.73;;;;;;;14.88;100.00;101320.09;6217731;23;20021;-80
2023/10/11 03:01:59;;;;;;;17.73;9.85;;;;;;;14.86;100.00;101314.44;6191386;23;20068;-79
2023/10/11 03:04:38;;;;;;;17.95;10.18;;;;;;;14.85;100.00;101310.28;6191613;23;20029;-79
2023/10/11 03:07:12;;;;;;;18.33;10.52;;;;;;;14.82;100.00;101313.88;6191529;23;20024;-79
2023/10/11 03:09:40;;;;;;;21.25;10.52;;;;;;;14.82;100.00;101310.44;6191001;23;20351;-79
2023/10/11 03:12:26;;;;;;;18.02;10.35;;;;;;;14.80;100.00;101300.19;6191233;23;20025;-79
2023/10/11 03:14:56;;;;;;;16.30;10.00;;;;;;;14.79;100.00;101300.66;6191504;23;20021;-79
2023/10/11 03:17:23;;;;;;;17.95;10.35;;;;;;;14.76;100.00;101299.63;6216645;23;20036;-79
2023/10/11 03:19:52;;;;;;;18.75;10.63;;;;;;;14.74;100.00;101302.03;6218209;23;20017;-79
2023/10/11 03:22:21;;;;;;;15.27;10.13;;;;;;;14.72;100.00;101301.72;6217704;23;20024;-79
2023/10/11 03:25:12;;;;;;;23.73;9.95;;;;;;;14.71;100.00;101307.53;6218078;23;20407;-79
2023/10/11 03:27:48;;;;;;;19.25;9.80;;;;;;;14.69;100.00;101299.97;6219157;23;20013;-79
2023/10/11 03:30:21;;;;;;;15.82;10.00;;;;;;;14.67;100.00;101294.31;6219240;23;20080;-80
2023/10/11 03:32:49;;;;;;;18.02;9.63;;;;;;;14.66;100.00;101296.25;6219152;23;20024;-80
2023/10/11 03:35:18;;;;;;;14.07;9.85;;;;;;;14.64;100.00;101293.28;6219414;23;20017;-80
2023/10/11 03:37:57;;;;;;;16.08;9.55;;;;;;;14.63;100.00;101296.41;6219566;23;20013;-79
2023/10/11 03:40:34;;;;;;;13.18;9.68;;;;;;;14.62;100.00;101311.00;6218805;23;20404;-79
2023/10/11 03:43:14;;;;;;;15.38;10.02;;;;;;;14.59;100.00;101317.25;6219866;23;20021;-80
2023/10/11 03:45:49;;;;;;;14.68;10.10;;;;;;;14.58;100.00;101299.69;6219166;23;20024;-80
2023/10/11 03:48:21;;;;;;;19.20;9.98;;;;;;;14.55;100.00;101295.25;6218414;23;20045;-80
2023/10/11 03:50:51;;;;;;;14.55;10.05;;;;;;;14.54;100.00;101277.69;6219748;23;20093;-80
2023/10/11 03:53:18;;;;;;;18.88;10.02;;;;;;;14.52;100.00;101280.81;6219422;23;20024;-80
2023/10/11 03:55:49;;;;;;;22.27;11.73;;;;;;;14.52;100.00;101274.72;6219599;23;20017;-80
2023/10/11 03:58:32;;;;;;;14.65;10.18;;;;;;;14.51;100.00;101275.91;6219280;23;20409;-80
2023/10/11 04:01:07;;;;;;;16.48;9.90;;;;;;;14.50;100.00;101272.50;6218826;23;20017;-82
2023/10/11 04:03:34;;;;;;;14.20;10.80;;;;;;;14.49;100.00;101268.31;6219283;23;20061;-82
2023/10/11 04:06:01;;;;;;;15.93;10.30;;;;;;;14.48;100.00;101264.16;6192441;23;20463;-81
2023/10/11 04:08:28;;;;;;;20.77;10.40;;;;;;;14.47;100.00;101265.34;6218957;23;20451;-82
2023/10/11 04:10:56;;;;;;;18.52;11.02;;;;;;;14.47;100.00;101268.03;6219070;23;20128;-80
2023/10/11 04:13:26;;;;;;;18.05;10.48;;;;;;;14.48;100.00;101264.16;6191632;23;20128;-80
2023/10/11 04:15:55;;;;;;;16.45;10.68;;;;;;;14.50;100.00;101263.72;6218844;23;20029;-80
2023/10/11 04:23:39;;;;;;;16.33;10.55;;;;;;;14.52;100.00;101274.72;6219187;23;20017;-81
2023/10/11 04:26:26;;;;;;;15.25;10.43;;;;;;;14.51;100.00;101283.94;6191963;23;20055;-80
2023/10/11 04:28:52;;;;;;;18.67;10.75;;;;;;;14.51;100.00;101276.66;6219551;23;20017;-80
2023/10/11 04:31:28;;;;;;;12.75;10.55;;;;;;;14.52;100.00;101280.06;6218114;23;20041;-79
2023/10/11 04:33:55;;;;;;;21.05;11.45;;;;;;;14.52;100.00;101283.50;6219513;23;20017;-80
2023/10/11 04:36:23;;;;;;;18.70;11.05;;;;;;;14.53;100.00;101271.59;6218419;23;20021;-80
2023/10/11 04:38:50;;;;;;;15.38;10.27;;;;;;;14.55;100.00;101284.53;6218959;23;20064;-80
2023/10/11 04:41:19;;;;;;;17.67;10.40;;;;;;;14.55;100.00;101287.94;6191748;23;20017;-80
2023/10/11 04:44:04;;;;;;;14.95;11.15;;;;;;;14.56;100.00;101281.41;6219359;23;20017;-80
2023/10/11 04:46:31;;;;;;;16.70;11.65;;;;;;;14.56;100.00;101265.31;6218213;23;20024;-80
2023/10/11 04:49:17;;;;;;;19.73;10.95;;;;;;;14.58;100.00;101267.56;6219407;23;20024;-79
2023/10/11 04:51:46;;;;;;;19.48;11.88;;;;;;;14.58;100.00;101268.28;6219194;23;20017;-79
2023/10/11 04:54:13;;;;;;;16.65;11.15;;;;;;;14.58;100.00;101267.56;6218855;23;20028;-79
2023/10/11 04:59:36;;;;;;;20.83;12.73;;;;;;;14.58;100.00;101270.22;6218412;23;20076;-79
2023/10/11 05:02:23;;;;;;;18.77;12.57;;;;;;;14.57;100.00;101277.53;6219052;23;20013;-80
2023/10/11 05:04:51;;;;;;;21.23;12.68;;;;;;;14.59;100.00;101277.06;6192383;23;20021;-79
2023/10/11 05:07:21;;;;;;;22.70;12.88;;;;;;;14.59;100.00;101277.06;6218832;23;20365;-80
2023/10/11 05:09:56;;;;;;;21.00;13.15;;;;;;;14.57;100.00;101276.78;6218938;23;20025;-80
2023/10/11 05:12:24;;;;;;;19.90;12.70;;;;;;;14.56;100.00;101277.97;6218730;23;20013;-80
2023/10/11 05:28:26;;;;;;;19.30;12.68;;;;;;;14.55;100.00;101268.47;6155665;23;20039;-80
2023/10/11 05:31:44;;;;;;;19.42;13.43;;;;;;;14.56;100.00;101284.06;6156207;23;20018;-80
2023/10/11 05:50:50;;;;;;;24.83;14.07;;;;;;;14.54;100.00;101251.63;6155852;23;20026;-80
2023/10/11 05:50:54;;;;;;;19.90;13.48;;;;;;;14.56;100.00;101251.94;6155543;23;20056;-80
2023/10/11 05:53:24;;;;;;;20.17;13.25;;;;;;;14.55;100.00;101245.09;6155517;23;20479;-80
2023/10/11 05:55:51;;;;;;;18.88;12.95;;;;;;;14.56;100.00;101254.59;6156126;23;20103;-80
2023/10/11 05:58:19;;;;;;;21.02;14.02;;;;;;;14.56;100.00;101262.66;6154923;23;20036;-80
2023/10/11 06:00:53;;;;;;;21.50;13.15;;;;;;;14.57;100.00;101271.44;6155958;23;20491;-80
2023/10/11 06:03:21;;;;;;;22.08;12.88;;;;;;;14.57;100.00;101284.81;6173144;23;20029;-80
2023/10/11 06:05:51;;;;;;;20.50;13.10;;;;;;;14.56;100.00;101278.72;6191055;23;20023;-79
2023/10/11 06:08:18;;;;;;;23.98;13.25;;;;;;;14.58;100.00;101272.91;6218236;23;20020;-83
2023/10/11 06:10:44;;;;;;;23.52;13.93;;;;;;;14.60;100.00;101265.16;6218266;23;20013;-81
2023/10/11 06:13:13;;;;;;;22.48;12.90;;;;;;;14.61;100.00;101266.66;6218019;23;20018;-79
2023/10/11 06:15:45;;;;;;;20.75;12.57;;;;;;;14.62;100.00;101284.94;6218416;23;20048;-81
2023/10/11 06:18:35;;;;;;;21.33;13.02;;;;;;;14.64;100.00;101281.81;6218452;23;20028;-80
2023/10/11 06:21:18;;;;;;;22.55;13.35;;;;;;;14.65;100.00;101281.38;6218547;23;20649;-79
2023/10/11 06:23:45;;;;;;;19.13;12.40;;;;;;;14.66;100.00;101276.75;6218688;23;20041;-79
2023/10/11 06:29:04;;;;;;;20.13;13.07;;;;;;;14.67;100.00;101278.97;6218956;23;20024;-80
2023/10/11 06:31:43;;;;;;;22.38;13.00;;;;;;;14.70;100.00;101289.97;6217529;23;20477;-80
2023/10/11 06:34:25;;;;;;;23.25;13.07;;;;;;;14.73;100.00;101299.78;6218025;23;20439;-78
2023/10/11 06:36:54;;;;;;;22.13;13.48;;;;;;;14.75;100.00;101300.81;6218292;23;20503;-78
2023/10/11 06:39:34;;;;;;;24.50;12.25;;;;;;;14.77;100.00;101298.44;6190831;23;20072;-77
2023/10/11 06:42:18;;;;;;;25.55;13.93;;;;;;;14.81;100.00;101304.34;6218174;23;20084;-79
2023/10/11 06:44:50;;;;;;;23.80;13.52;;;;;;;14.85;100.00;101302.25;6218415;23;20016;-78
2023/10/11 06:47:19;;;;;;;27.33;13.13;;;;;;;14.87;100.00;101304.47;6218052;23;20067;-79
2023/10/11 06:49:54;;;;;;;21.88;13.48;;;;;;;14.90;100.00;101306.97;6190749;23;20021;-80
2023/10/11 06:52:25;;;;;;;23.92;13.15;;;;;;;14.94;100.00;101312.19;6217486;23;20017;-79
2023/10/11 06:55:14;;;;;;;22.80;13.15;;;;;;;14.95;100.00;101295.63;6217831;23;20464;-80
2023/10/11 06:57:54;;;;;;;21.85;13.32;;;;;;;15.00;100.00;101305.75;6217961;23;20032;-80
2023/10/11 07:00:23;;;;;;;24.40;13.85;;;;;;;15.06;100.00;101294.38;6217365;23;20027;-81
2023/10/11 07:02:53;;;;;;;21.45;13.30;;;;;;;15.09;100.00;101307.63;6219452;23;20024;-83
2023/10/11 07:05:25;;;;;;;21.75;13.80;;;;;;;15.13;100.00;101294.06;6219086;23;20024;-81
2023/10/11 07:07:54;;;;;;;24.10;13.20;;;;;;;15.18;100.00;101280.75;6220105;23;20013;-78
2023/10/11 07:10:31;;;;;;;24.25;13.63;;;;;;;15.21;100.00;101279.81;6217797;23;20075;-79
2023/10/11 07:13:05;;;;;;;25.02;13.65;;;;;;;15.23;100.00;101279.34;6220172;23;20017;-80
2023/10/11 07:15:40;;;;;;;26.38;14.18;;;;;;;15.26;100.00;101283.81;6219852;23;20093;-82
2023/10/11 07:18:27;;;;;;;25.55;13.98;;;;;;;15.28;100.00;101289.47;6219001;23;20017;-81
2023/10/11 07:20:58;;;;;;;24.23;13.65;;;;;;;15.30;100.00;101287.06;6220338;23;20027;-81
2023/10/11 07:23:35;;;;;;;28.25;14.02;;;;;;;15.32;100.00;101300.75;6219939;23;20421;-83
2023/10/11 07:28:51;;;;;;;22.98;14.45;;;;;;;15.36;100.00;101312.06;6221172;23;20024;-81
2023/10/11 07:31:32;;;;;;;25.38;14.02;;;;;;;15.36;100.00;101309.38;6220716;23;20076;-82
2023/10/11 07:34:05;;;;;;;28.17;14.32;;;;;;;15.40;100.00;101309.19;6220575;23;20089;-82
2023/10/11 07:36:39;;;;;;;24.27;14.00;;;;;;;15.44;100.00;101315.13;6221316;23;20076;-82
2023/10/11 07:44:30;;;;;;;25.02;13.95;;;;;;;15.56;100.00;101341.00;6219469;23;20057;-80
2023/10/11 07:46:58;;;;;;;24.17;13.40;;;;;;;15.57;100.00;101340.56;6193135;23;20021;-80
2023/10/11 07:49:25;;;;;;;25.52;13.65;;;;;;;15.58;100.00;101346.66;6219690;23;20013;-80
2023/10/11 07:51:53;;;;;;;32.30;13.40;;;;;;;15.59;100.00;101356.94;6220532;23;20510;-80
2023/10/11 07:54:20;;;;;;;26.88;13.80;;;;;;;15.60;100.00;101341.56;6219136;23;20020;-80
2023/10/11 07:57:00;;;;;;;30.90;14.95;;;;;;;15.62;100.00;101341.84;6220317;23;20013;-80
2023/10/11 07:59:28;;;;;;;24.70;13.88;;;;;;;15.64;100.00;101337.50;6219389;23;20076;-79
2023/10/11 08:01:56;;;;;;;27.98;14.32;;;;;;;15.67;100.00;101341.22;6220230;23;20024;-80
2023/10/11 08:04:29;;;;;;;30.25;13.70;;;;;;;15.70;100.00;101331.50;6191498;23;20438;-80
2023/10/11 08:06:59;;;;;;;28.38;15.38;;;;;;;15.72;100.00;101331.78;6219675;23;20037;-80
2023/10/11 08:09:45;;;;;;;27.63;15.05;;;;;;;15.77;100.00;101331.13;6217913;23;20024;-80
2023/10/11 08:12:14;;;;;;;30.13;14.63;;;;;;;15.80;100.00;101330.22;6218787;23;20480;-81
2023/10/11 08:14:45;;;;;;;34.50;15.35;;;;;;;15.83;100.00;101342.72;6218841;23;20459;-80
2023/10/11 08:17:16;;;;;;;31.08;14.77;;;;;;;15.86;100.00;101341.81;6219057;23;20017;-81
2023/10/11 08:19:47;;;;;;;28.90;14.68;;;;;;;15.89;100.00;101336.25;6219044;23;20440;-81
2023/10/11 08:22:14;;;;;;;;;;;;;;;15.95;100.00;101339.78;6219048;23;20088;-81
2023/10/11 08:24:48;;;;;;;32.70;14.63;;;;;;;15.97;100.00;101340.06;6219026;23;19927;-81
2023/10/11 08:27:27;;;;;;;27.00;14.63;;;;;;;16.00;100.00;101357.16;6218858;23;20024;-81
2023/10/11 08:32:43;;;;;;;27.33;14.65;;;;;;;16.00;100.00;101335.69;6219199;23;20021;-80
2023/10/11 08:35:17;;;;;;;29.38;14.70;;;;;;;15.99;100.00;101343.00;6192173;23;20419;-81
2023/10/11 08:37:45;;;;;;;29.95;14.88;;;;;;;15.99;100.00;101348.38;6218717;23;20017;-81
2023/10/11 08:40:29;;;;;;;33.05;16.23;;;;;;;16.00;100.00;101346.44;6218749;23;20474;-80
2023/10/11 08:43:00;;;;;;;28.77;15.20;;;;;;;15.99;100.00;101356.44;6192597;23;20025;-78
2023/10/11 08:45:33;;;;;;;32.65;15.73;;;;;;;16.01;100.00;101347.91;6218365;23;20020;-77
2023/10/11 08:48:05;;;;;;;32.47;15.60;;;;;;;16.04;100.00;101347.00;6192029;23;20503;-78
2023/10/11 08:50:37;;;;;;;35.85;15.55;;;;;;;16.05;100.00;101348.47;6219383;23;20462;-79
2023/10/11 08:53:10;;;;;;;29.90;15.20;;;;;;;16.11;100.00;101345.88;6192801;23;20021;-79
2023/10/11 08:55:40;;;;;;;31.92;15.93;;;;;;;16.11;100.00;101327.81;6219773;23;20048;-76
2023/10/11 08:58:12;;;;;;;28.88;15.52;;;;;;;16.13;100.00;101322.00;6218773;23;20032;-77
2023/10/11 09:00:46;;;;;;;35.33;16.10;;;;;;;16.15;100.00;101324.97;6219150;23;20476;-76
2023/10/11 09:03:18;;;;;;;31.85;17.52;;;;;;;16.15;100.00;101328.38;6191945;23;20088;-81
2023/10/11 09:05:47;;;;;;;28.25;15.80;;;;;;;16.16;100.00;101332.56;6218729;23;20099;-83
2023/10/11 09:08:21;;;;;;;31.75;15.95;;;;;;;16.16;100.00;101337.91;6219185;23;20088;-81
2023/10/11 09:10:49;;;;;;;37.85;16.35;;;;;;;16.15;100.00;101336.44;6219168;23;20018;-81
2023/10/11 09:13:26;;;;;;;27.75;15.98;;;;;;;16.15;100.00;101351.81;6218897;23;20017;-81
2023/10/11 09:15:54;;;;;;;33.42;17.15;;;;;;;16.14;100.00;101347.66;6219442;23;20214;-79
2023/10/11 09:18:24;;;;;;;34.17;17.23;;;;;;;16.15;100.00;101336.44;6218617;23;20021;-80
2023/10/11 09:21:08;;;;;;;35.70;17.20;;;;;;;16.20;100.00;101343.13;6218913;23;20013;-80
2023/10/11 09:23:46;;;;;;;36.28;16.70;;;;;;;16.23;100.00;101329.50;6218878;23;20048;-80
2023/10/11 09:26:21;;;;;;;34.53;17.25;;;;;;;16.25;100.00;101340.53;6218775;23;20048;-79
2023/10/11 09:28:56;;;;;;;34.70;17.00;;;;;;;16.26;100.00;101338.56;6218994;23;20024;-80
2023/10/11 09:31:24;;;;;;;31.38;17.67;;;;;;;16.27;100.00;101340.81;6218347;23;20009;-79
2023/10/11 09:33:53;;;;;;;36.83;17.10;;;;;;;16.29;100.00;101354.50;6219225;23;20021;-80
2023/10/11 09:36:24;;;;;;;38.33;16.63;;;;;;;16.33;100.00;101360.44;6217191;23;20355;-80
2023/10/11 09:38:54;;;;;;;29.63;16.63;;;;;;;16.35;100.00;101362.66;6219032;23;20017;-81
2023/10/11 09:41:44;;;;;;;33.25;17.95;;;;;;;16.37;100.00;101379.06;6217891;23;20013;-80
2023/10/11 09:44:14;;;;;;;30.27;16.17;;;;;;;16.37;100.00;101372.94;6218378;23;20018;-81
2023/10/11 09:46:43;;;;;;;35.08;17.63;;;;;;;16.37;100.00;101373.69;6218236;23;20025;-81
2023/10/11 09:49:13;;;;;;;34.80;17.35;;;;;;;16.38;100.00;101374.44;6217778;23;20024;-81
2023/10/11 09:51:41;;;;;;;40.17;17.27;;;;;;;16.38;100.00;101382.50;6191069;23;20021;-81
2023/10/11 09:54:12;;;;;;;36.38;17.98;;;;;;;16.39;100.00;101402.78;6218246;23;20048;-81
2023/10/11 09:56:45;;;;;;;34.53;17.73;;;;;;;16.38;100.00;101387.88;6192093;23;20017;-81
2023/10/11 09:59:25;;;;;;;30.63;17.85;;;;;;;16.41;100.00;101387.66;6218519;23;20017;-81
2023/10/11 10:02:02;;;;;;;40.10;17.05;;;;;;;16.42;100.00;101397.19;6218287;23;20013;-81
2023/10/11 10:05:04;;;;;;;31.33;16.40;;;;;;;16.47;100.00;101393.13;6216879;23;20122;-80
2023/10/11 10:07:45;;;;;;;32.58;18.20;;;;;;;16.52;100.00;101387.09;6206770;23;20020;-80
2023/10/11 10:10:15;;;;;;;34.67;16.80;;;;;;;16.58;100.00;101375.22;6217490;23;20017;-82
2023/10/11 10:12:59;;;;;;;34.75;16.08;;;;;;;16.67;100.00;101371.72;6190996;23;20013;-80
2023/10/11 10:15:33;;;;;;;29.52;15.75;;;;;;;16.73;100.00;101369.13;6218104;23;20423;-79
2023/10/11 10:18:06;;;;;;;37.10;15.40;;;;;;;16.76;100.00;101387.03;6217865;23;20017;-79
2023/10/11 10:20:45;;;;;;;30.30;15.88;;;;;;;16.83;100.00;101381.97;6218047;23;20013;-80
2023/10/11 10:23:14;;;;;;;27.90;15.18;;;;;;;16.92;100.00;101381.88;6218022;23;20017;-78
2023/10/11 10:26:05;;;;;;;31.17;15.25;;;;;;;17.02;100.00;101400.59;6217907;23;20017;-77
2023/10/11 10:28:34;;;;;;;29.67;15.52;;;;;;;17.10;100.00;101396.31;6217684;23;20017;-80
2023/10/11 10:31:10;;;;;;;29.45;14.70;;;;;;;17.16;100.00;101397.13;6218462;23;20491;-80
2023/10/11 10:33:38;;;;;;;36.20;14.77;;;;;;;17.17;100.00;101388.59;6216866;23;20435;-79
2023/10/11 10:36:28;;;;;;;32.78;15.30;;;;;;;17.23;100.00;101383.25;6218213;23;20017;-79
2023/10/11 10:41:40;;;;;;;32.03;14.63;;;;;;;17.46;100.00;101397.75;6219026;23;20439;-78
2023/10/11 10:44:09;;;;;;;31.85;14.98;;;;;;;17.56;100.00;101394.44;6219081;23;20096;-78
2023/10/11 10:46:51;;;;;;;29.75;14.00;;;;;;;17.67;100.00;101385.75;6218806;23;20025;-78
2023/10/11 10:49:23;;;;;;;30.38;13.93;;;;;;;17.88;100.00;101375.72;6192523;23;20017;-78
2023/10/11 10:51:53;;;;;;;40.13;13.65;;;;;;;18.01;100.00;101368.00;6219340;23;20088;-78
2023/10/11 10:54:23;;;;;;;31.17;14.07;;;;;;;18.14;100.00;101371.06;6218523;23;20013;-79
2023/10/11 10:56:53;;;;;;;26.10;13.13;;;;;;;18.23;100.00;101351.28;6219447;23;20024;-80
2023/10/11 10:59:21;;;;;;;23.77;13.07;;;;;;;18.36;100.00;101357.03;6218469;23;20323;-79
2023/10/11 11:01:53;;;;;;;29.30;12.55;;;;;;;18.55;100.00;101341.25;6218801;23;20021;-79
2023/10/11 11:04:27;;;;;;;22.02;11.18;;;;;;;18.79;100.00;101336.28;6218666;23;20017;-80
2023/10/11 11:06:55;;;;;;;18.52;11.05;;;;;;;18.84;98.15;101330.16;6219551;23;20104;-79
2023/10/11 11:09:28;;;;;;;27.33;11.60;;;;;;;18.77;97.61;101336.03;6218284;23;20021;-78
2023/10/11 11:12:18;;;;;;;23.63;11.30;;;;;;;18.65;98.12;101324.44;6219258;23;20068;-78
2023/10/11 11:14:54;;;;;;;19.73;9.48;;;;;;;18.63;98.27;101321.47;6218311;23;20013;-78
2023/10/11 11:17:45;;;;;;;17.10;9.27;;;;;;;18.73;98.37;101327.41;6217813;23;20017;-78
2023/10/11 11:20:15;;;;;;;17.58;9.95;;;;;;;18.82;97.85;101316.41;6218767;23;20013;-79
2023/10/11 11:22:45;;;;;;;23.95;9.82;;;;;;;18.95;97.62;101322.13;6218995;23;20017;-79
2023/10/11 11:28:05;;;;;;;17.65;8.35;;;;;;;19.06;96.24;101326.84;6219456;23;20489;-78
2023/10/11 11:30:33;;;;;;;18.85;8.60;;;;;;;19.05;95.80;101319.97;6218203;23;20415;-79
2023/10/11 11:33:13;;;;;;;20.95;8.88;;;;;;;19.03;96.11;101316.28;6219532;23;20072;-79
2023/10/11 11:35:45;;;;;;;19.70;8.75;;;;;;;19.08;95.93;101310.91;6218859;23;20045;-79
2023/10/11 11:38:20;;;;;;;15.07;7.85;;;;;;;19.10;95.27;101316.56;6219132;23;20414;-79
2023/10/11 11:40:51;;;;;;;15.55;8.27;;;;;;;19.16;94.90;101316.59;6219232;23;20052;-79
2023/10/11 11:43:20;;;;;;;15.07;7.57;;;;;;;19.15;94.29;101312.41;6219178;23;20023;-79
2023/10/11 11:45:51;;;;;;;13.00;7.50;;;;;;;19.19;94.19;101312.91;6218511;23;20060;-79
2023/10/11 11:48:23;;;;;;;13.40;6.72;;;;;;;19.25;94.50;101319.06;6218668;23;20025;-79
2023/10/11 11:50:50;;;;;;;13.98;6.88;;;;;;;19.26;93.87;101312.44;6192934;23;20419;-79
2023/10/11 11:53:19;;;;;;;13.55;6.50;;;;;;;19.33;94.08;101323.50;6219038;23;20068;-79
2023/10/11 11:55:46;;;;;;;14.52;6.25;;;;;;;19.36;93.68;101310.25;6219189;23;20088;-79
2023/10/11 11:58:16;;;;;;;11.80;5.90;;;;;;;19.33;93.35;101323.50;6217436;23;20032;-79
2023/10/11 12:00:59;;;;;;;11.32;6.15;;;;;;;19.27;93.41;101306.53;6218025;23;20091;-79
2023/10/11 12:03:28;;;;;;;8.85;4.93;;;;;;;19.27;93.27;101311.22;6218472;23;20009;-79
2023/10/11 12:05:55;;;;;;;11.25;5.60;;;;;;;19.32;93.04;101313.94;6218879;23;20443;-79
2023/10/11 12:08:23;;;;;;;10.60;5.35;;;;;;;19.36;93.01;101318.34;6218099;23;20025;-79
2023/10/11 12:10:50;;;;;;;14.00;5.07;;;;;;;19.38;92.68;101316.66;6191915;23;20017;-78
2023/10/11 12:13:23;;;;;;;14.23;4.97;;;;;;;19.34;92.06;101316.13;6218662;23;20017;-79
2023/10/11 12:15:56;;;;;;;7.97;4.25;;;;;;;19.38;92.24;101311.25;6218379;23;20020;-78
2023/10/11 12:18:32;;;;;;;8.93;4.80;;;;;;;19.48;91.36;101300.97;6218389;23;20025;-77
2023/10/11 12:21:03;;;;;;;9.82;4.07;;;;;;;19.54;91.38;101310.59;6218913;23;20024;-78
2023/10/11 12:23:29;;;;;;;8.40;4.63;;;;;;;19.58;92.00;101308.41;6218483;23;20024;-78
2023/10/11 12:25:56;;;;;;;10.07;5.60;;;;;;;19.55;91.71;101319.44;6218999;23;20152;-77